createdAt,value
2022-08-26T00:00:24.090Z,26.73
2022-08-26T00:02:28.718Z,26.62
2022-08-26T00:04:32.540Z,26.57
2022-08-26T00:06:36.119Z,26.54
2022-08-26T00:08:40.197Z,26.60
2022-08-26T00:10:45.098Z,26.26
2022-08-26T00:12:48.547Z,26.54
2022-08-26T00:14:53.363Z,26.34
2022-08-26T00:16:57.045Z,26.13
2022-08-26T00:19:01.158Z,25.88
2022-08-26T00:21:06.167Z,25.86
2022-08-26T00:23:10.211Z,25.74
2022-08-26T00:25:13.955Z,25.76
2022-08-26T00:27:20.266Z,25.69
2022-08-26T00:29:24.237Z,25.51
2022-08-26T00:31:31.151Z,25.50
2022-08-26T00:33:34.848Z,25.50
2022-08-26T00:35:38.282Z,25.31
2022-08-26T00:37:48.809Z,25.27
2022-08-26T00:39:52.837Z,25.17
2022-08-26T00:41:56.467Z,25.09
2022-08-26T00:44:00.095Z,25.08
2022-08-26T00:46:09.389Z,25.25
2022-08-26T00:48:17.120Z,25.25
2022-08-26T00:50:25.397Z,25.35
2022-08-26T00:52:30.511Z,25.33
2022-08-26T00:54:40.419Z,25.30
2022-08-26T00:56:52.882Z,25.16
2022-08-26T00:58:59.986Z,25.11
2022-08-26T01:01:03.590Z,25.18
2022-08-26T01:03:12.632Z,25.13
2022-08-26T01:05:19.528Z,25.18
2022-08-26T01:07:23.383Z,25.07
2022-08-26T01:09:27.228Z,25.00
2022-08-26T01:11:31.785Z,24.82
2022-08-26T01:13:38.024Z,24.82
2022-08-26T01:15:45.571Z,24.95
2022-08-26T01:17:49.794Z,24.75
2022-08-26T01:19:59.619Z,24.68
2022-08-26T01:22:11.225Z,24.68
2022-08-26T01:24:17.908Z,24.80
2022-08-26T01:26:25.946Z,24.92
2022-08-26T01:28:34.268Z,24.88
2022-08-26T01:30:42.147Z,24.90
2022-08-26T01:32:47.132Z,24.95
2022-08-26T01:34:50.611Z,25.10
2022-08-26T01:37:02.537Z,25.04
2022-08-26T01:39:08.390Z,24.92
2022-08-26T01:41:19.606Z,24.99
2022-08-26T01:43:26.141Z,24.99
2022-08-26T01:45:34.177Z,24.88
2022-08-26T01:47:39.678Z,24.87
2022-08-26T01:49:47.458Z,24.68
2022-08-26T01:51:57.605Z,24.60
2022-08-26T01:54:01.909Z,24.55
2022-08-26T01:56:07.356Z,24.60
2022-08-26T01:58:17.590Z,24.51
2022-08-26T02:00:24.577Z,24.31
2022-08-26T02:02:28.744Z,24.32
2022-08-26T02:04:38.693Z,24.35
2022-08-26T02:06:43.406Z,24.32
2022-08-26T02:08:50.251Z,24.45
2022-08-26T02:10:55.211Z,24.36
2022-08-26T02:12:58.969Z,24.06
2022-08-26T02:15:07.696Z,23.98
2022-08-26T02:17:15.935Z,24.00
2022-08-26T02:19:23.737Z,24.07
2022-08-26T02:21:27.426Z,24.06
2022-08-26T02:23:30.975Z,24.04
2022-08-26T02:25:41.665Z,24.06
2022-08-26T02:27:47.477Z,24.12
2022-08-26T02:29:56.481Z,24.12
2022-08-26T02:32:01.352Z,24.05
2022-08-26T02:34:12.504Z,24.00
2022-08-26T02:36:21.054Z,23.97
2022-08-26T02:38:24.520Z,23.96
2022-08-26T02:40:30.654Z,23.83
2022-08-26T02:42:34.743Z,23.79
2022-08-26T02:44:39.006Z,23.85
2022-08-26T02:46:46.863Z,23.75
2022-08-26T02:48:52.411Z,23.65
2022-08-26T02:50:55.818Z,23.73
2022-08-26T02:52:59.336Z,23.77
2022-08-26T02:55:02.760Z,23.81
2022-08-26T02:57:06.392Z,23.87
2022-08-26T02:59:12.568Z,23.86
2022-08-26T03:01:24.046Z,23.87
2022-08-26T03:03:28.312Z,23.70
2022-08-26T03:05:33.473Z,23.75
2022-08-26T03:07:37.524Z,23.76
2022-08-26T03:09:41.023Z,23.76
2022-08-26T03:11:44.458Z,23.71
2022-08-26T03:13:48.103Z,23.60
2022-08-26T03:15:51.583Z,23.63
2022-08-26T03:17:56.559Z,23.55
2022-08-26T03:20:00.711Z,23.52
2022-08-26T03:22:07.160Z,23.49
2022-08-26T03:24:12.545Z,23.45
2022-08-26T03:26:17.725Z,23.42
2022-08-26T03:28:21.412Z,23.44
2022-08-26T03:30:45.339Z,23.39
2022-08-26T03:32:49.380Z,23.50
2022-08-26T03:34:53.964Z,23.53
2022-08-26T03:36:57.396Z,23.57
2022-08-26T03:39:02.140Z,23.52
2022-08-26T03:41:05.967Z,23.35
2022-08-26T03:43:11.747Z,23.19
2022-08-26T03:45:17.307Z,23.03
2022-08-26T03:47:21.906Z,22.93
2022-08-26T03:49:25.425Z,22.95
2022-08-26T03:51:32.978Z,23.00
2022-08-26T03:53:37.979Z,22.95
2022-08-26T03:55:43.424Z,22.99
2022-08-26T03:57:47.409Z,22.95
2022-08-26T03:59:51.377Z,22.96
2022-08-26T04:01:55.456Z,23.01
2022-08-26T04:04:00.163Z,23.03
2022-08-26T04:06:04.077Z,22.98
2022-08-26T04:08:08.052Z,23.06
2022-08-26T04:10:12.567Z,23.11
2022-08-26T04:12:17.796Z,23.12
2022-08-26T04:14:23.863Z,23.06
2022-08-26T04:16:31.581Z,22.97
2022-08-26T04:18:37.964Z,23.08
2022-08-26T04:20:50.639Z,23.08
2022-08-26T04:22:54.334Z,23.02
2022-08-26T04:24:57.943Z,23.00
2022-08-26T04:27:03.379Z,22.97
2022-08-26T04:29:11.220Z,22.96
2022-08-26T04:31:16.402Z,23.01
2022-08-26T04:33:32.231Z,23.12
2022-08-26T04:35:37.118Z,23.14
2022-08-26T04:37:43.006Z,22.99
2022-08-26T04:39:46.611Z,23.12
2022-08-26T04:41:50.820Z,23.10
2022-08-26T04:43:54.679Z,23.00
2022-08-26T04:46:02.217Z,22.95
2022-08-26T04:48:05.962Z,22.94
2022-08-26T04:50:15.260Z,22.96
2022-08-26T04:52:21.477Z,22.98
2022-08-26T04:54:26.334Z,22.89
2022-08-26T04:56:33.958Z,22.87
2022-08-26T04:58:37.435Z,22.91
2022-08-26T05:00:40.956Z,22.87
2022-08-26T05:02:46.049Z,22.85
2022-08-26T05:04:49.674Z,22.94
2022-08-26T05:07:02.469Z,23.01
2022-08-26T05:09:06.589Z,23.07
2022-08-26T05:11:10.650Z,23.09
2022-08-26T05:13:15.667Z,22.99
2022-08-26T05:15:19.488Z,23.09
2022-08-26T05:17:23.477Z,22.99
2022-08-26T05:19:28.516Z,23.11
2022-08-26T05:21:31.959Z,23.10
2022-08-26T05:23:36.938Z,23.00
2022-08-26T05:25:41.911Z,23.03
2022-08-26T05:27:45.598Z,23.00
2022-08-26T05:29:54.550Z,22.97
2022-08-26T05:31:58.346Z,22.97
2022-08-26T05:34:05.920Z,23.01
2022-08-26T05:36:15.135Z,23.08
2022-08-26T05:38:20.395Z,23.08
2022-08-26T05:40:23.868Z,23.05
2022-08-26T05:42:29.530Z,23.03
2022-08-26T05:44:35.900Z,23.00
2022-08-26T05:46:56.528Z,22.98
2022-08-26T05:49:00.170Z,23.07
2022-08-26T05:51:05.539Z,23.06
2022-08-26T05:53:11.924Z,23.09
2022-08-26T05:55:16.680Z,23.10
2022-08-26T05:57:23.149Z,23.18
2022-08-26T05:59:27.008Z,23.25
2022-08-26T06:01:30.829Z,23.06
2022-08-26T06:03:40.829Z,22.95
2022-08-26T06:05:44.342Z,23.00
2022-08-26T06:08:05.720Z,23.03
2022-08-26T06:10:31.682Z,23.09
2022-08-26T06:12:36.204Z,23.11
2022-08-26T06:14:39.600Z,23.17
2022-08-26T06:16:45.085Z,23.18
2022-08-26T06:18:48.884Z,23.14
2022-08-26T06:20:57.999Z,23.16
2022-08-26T06:23:19.083Z,23.17
2022-08-26T06:25:39.195Z,23.19
2022-08-26T06:27:42.682Z,23.29
2022-08-26T06:29:47.105Z,23.30
2022-08-26T06:31:50.644Z,23.32
2022-08-26T06:33:55.794Z,23.37
2022-08-26T06:36:01.111Z,23.23
2022-08-26T06:38:04.763Z,23.18
2022-08-26T06:40:09.768Z,23.22
2022-08-26T06:42:16.325Z,23.09
2022-08-26T06:44:20.945Z,23.04
2022-08-26T06:46:24.750Z,23.14
2022-08-26T06:48:29.762Z,23.23
2022-08-26T06:50:33.324Z,23.35
2022-08-26T06:52:36.819Z,23.38
2022-08-26T06:54:43.111Z,23.39
2022-08-26T06:56:47.998Z,23.30
2022-08-26T06:58:53.664Z,23.34
2022-08-26T07:01:03.089Z,23.28
2022-08-26T07:03:13.360Z,23.25
2022-08-26T07:05:16.899Z,23.32
2022-08-26T07:07:21.645Z,23.34
2022-08-26T07:09:28.064Z,23.34
2022-08-26T07:11:32.381Z,23.41
2022-08-26T07:13:37.653Z,23.43
2022-08-26T07:15:43.500Z,23.38
2022-08-26T07:17:47.821Z,23.42
2022-08-26T07:19:51.641Z,23.46
2022-08-26T07:21:56.236Z,23.45
2022-08-26T07:24:01.326Z,23.51
2022-08-26T07:26:06.425Z,23.35
2022-08-26T07:28:10.249Z,23.34
2022-08-26T07:30:15.146Z,23.39
2022-08-26T07:32:21.005Z,23.23
2022-08-26T07:34:27.429Z,23.24
2022-08-26T07:36:31.360Z,23.19
2022-08-26T07:38:36.243Z,23.39
2022-08-26T07:40:40.700Z,23.44
2022-08-26T07:42:44.460Z,23.44
2022-08-26T07:44:48.208Z,23.36
2022-08-26T07:46:53.118Z,23.36
2022-08-26T07:48:59.389Z,23.39
2022-08-26T07:51:02.946Z,23.32
2022-08-26T07:53:06.482Z,23.25
2022-08-26T07:55:14.401Z,23.24
2022-08-26T07:57:19.153Z,23.31
2022-08-26T07:59:23.325Z,23.29
2022-08-26T08:01:28.996Z,23.30
2022-08-26T08:03:34.793Z,23.28
2022-08-26T08:05:41.114Z,23.17
2022-08-26T08:07:45.629Z,23.25
2022-08-26T08:09:51.271Z,23.27
2022-08-26T08:11:54.789Z,23.24
2022-08-26T08:14:00.745Z,23.12
2022-08-26T08:16:04.997Z,23.14
2022-08-26T08:18:15.788Z,23.23
2022-08-26T08:20:20.562Z,23.12
2022-08-26T08:22:25.485Z,23.26
2022-08-26T08:24:30.799Z,23.27
2022-08-26T08:26:35.191Z,23.24
2022-08-26T08:28:39.711Z,23.09
2022-08-26T08:30:45.161Z,23.02
2022-08-26T08:32:49.277Z,23.11
2022-08-26T08:34:52.915Z,23.15
2022-08-26T08:36:57.597Z,23.09
2022-08-26T08:39:02.354Z,23.04
2022-08-26T08:41:05.794Z,23.27
2022-08-26T08:43:13.531Z,23.20
2022-08-26T08:45:23.061Z,23.17
2022-08-26T08:47:32.154Z,23.24
2022-08-26T08:49:35.993Z,23.08
2022-08-26T08:51:48.040Z,23.16
2022-08-26T08:53:55.717Z,23.05
2022-08-26T08:56:08.821Z,23.19
2022-08-26T08:58:19.135Z,23.32
2022-08-26T09:00:30.349Z,23.45
2022-08-26T09:02:41.680Z,23.42
2022-08-26T09:04:57.508Z,23.29
2022-08-26T09:07:04.182Z,23.23
2022-08-26T09:09:15.248Z,23.12
2022-08-26T09:11:21.387Z,23.13
2022-08-26T09:13:27.555Z,23.22
2022-08-26T09:15:40.485Z,23.17
2022-08-26T09:17:53.362Z,23.20
2022-08-26T09:20:08.416Z,23.15
2022-08-26T09:22:30.161Z,23.22
2022-08-26T09:24:41.849Z,23.18
2022-08-26T09:26:53.048Z,23.25
2022-08-26T09:28:58.473Z,23.22
2022-08-26T09:31:13.016Z,23.22
2022-08-26T09:33:19.969Z,23.18
2022-08-26T09:35:26.743Z,23.01
2022-08-26T09:37:40.494Z,23.30
2022-08-26T09:39:44.526Z,23.37
2022-08-26T09:42:04.868Z,23.40
2022-08-26T09:44:17.659Z,23.32
2022-08-26T09:46:28.920Z,23.44
2022-08-26T09:48:36.259Z,23.60
2022-08-26T09:50:53.106Z,23.71
2022-08-26T09:53:16.931Z,23.79
2022-08-26T09:55:24.216Z,23.81
2022-08-26T09:57:31.280Z,23.82
2022-08-26T09:59:34.736Z,23.85
2022-08-26T10:01:41.854Z,23.88
2022-08-26T10:03:47.086Z,24.01
2022-08-26T10:05:59.358Z,23.93
2022-08-26T10:08:18.420Z,23.70
2022-08-26T10:10:26.174Z,23.63
2022-08-26T10:12:35.797Z,23.54
2022-08-26T10:17:06.846Z,23.24
2022-08-26T10:19:16.584Z,23.25
2022-08-26T10:21:26.661Z,23.22
2022-08-26T10:23:34.626Z,23.31
2022-08-26T10:25:44.145Z,23.53
2022-08-26T10:27:55.673Z,23.51
2022-08-26T10:30:06.550Z,23.46
2022-08-26T10:32:15.270Z,23.52
2022-08-26T10:34:21.148Z,23.45
2022-08-26T10:37:05.156Z,23.62
2022-08-26T10:39:15.557Z,23.76
2022-08-26T10:41:24.210Z,23.80
2022-08-26T10:43:31.758Z,23.79
2022-08-26T10:45:43.610Z,23.90
2022-08-26T10:47:53.013Z,23.63
2022-08-26T10:50:02.938Z,23.91
2022-08-26T10:52:16.499Z,24.01
2022-08-26T10:54:29.904Z,24.11
2022-08-26T10:56:44.801Z,24.23
2022-08-26T10:59:01.185Z,24.31
2022-08-26T11:01:29.059Z,24.48
2022-08-26T11:03:42.584Z,24.56
2022-08-26T11:05:46.110Z,24.70
2022-08-26T11:07:52.739Z,24.71
2022-08-26T11:09:59.559Z,24.66
2022-08-26T11:12:06.843Z,24.57
2022-08-26T11:14:42.078Z,24.50
2022-08-26T11:17:01.243Z,24.68
2022-08-26T11:19:06.505Z,24.84
2022-08-26T11:21:46.066Z,24.89
2022-08-26T11:23:52.897Z,24.74
2022-08-26T11:26:35.377Z,24.81
2022-08-26T11:28:44.610Z,24.70
2022-08-26T11:30:57.523Z,24.60
2022-08-26T11:33:02.024Z,24.67
2022-08-26T11:35:08.711Z,24.74
2022-08-26T11:37:18.007Z,24.72
2022-08-26T11:39:25.845Z,24.56
2022-08-26T11:41:31.363Z,24.54
2022-08-26T11:43:35.069Z,24.50
2022-08-26T11:45:41.556Z,24.40
2022-08-26T11:47:49.359Z,24.36
2022-08-26T11:50:07.985Z,24.38
2022-08-26T11:52:14.731Z,24.42
2022-08-26T11:54:30.472Z,24.51
2022-08-26T11:56:42.707Z,24.59
2022-08-26T11:58:47.886Z,24.89
2022-08-26T12:00:53.914Z,24.89
2022-08-26T12:03:02.706Z,25.12
2022-08-26T12:05:09.012Z,25.33
2022-08-26T12:07:12.856Z,25.31
2022-08-26T12:09:23.677Z,25.41
2022-08-26T12:11:31.033Z,25.21
2022-08-26T12:13:38.980Z,25.16
2022-08-26T12:15:42.733Z,25.25
2022-08-26T12:17:51.710Z,25.21
2022-08-26T12:19:58.385Z,25.14
2022-08-26T12:22:05.933Z,25.06
2022-08-26T12:24:09.879Z,25.02
2022-08-26T12:26:21.849Z,25.01
2022-08-26T12:28:25.579Z,24.90
2022-08-26T12:30:29.025Z,25.04
2022-08-26T12:32:35.341Z,25.04
2022-08-26T12:34:39.807Z,24.97
2022-08-26T12:36:48.142Z,24.93
2022-08-26T12:38:53.706Z,24.96
2022-08-26T12:41:00.003Z,25.02
2022-08-26T12:43:05.434Z,25.07
2022-08-26T12:45:09.670Z,25.16
2022-08-26T12:47:23.400Z,25.19
2022-08-26T12:49:47.896Z,24.94
2022-08-26T12:51:52.747Z,24.99
2022-08-26T12:53:56.564Z,24.83
2022-08-26T12:56:03.483Z,24.86
2022-08-26T12:58:21.739Z,24.92
2022-08-26T13:00:36.406Z,24.71
2022-08-26T13:02:40.272Z,24.72
2022-08-26T13:04:46.135Z,24.74
2022-08-26T13:06:49.589Z,24.64
2022-08-26T13:08:55.929Z,24.77
2022-08-26T13:11:05.347Z,24.91
2022-08-26T13:13:08.845Z,24.91
2022-08-26T13:15:13.248Z,24.93
2022-08-26T13:17:16.967Z,25.09
2022-08-26T13:19:23.479Z,25.23
2022-08-26T13:21:28.951Z,25.16
2022-08-26T13:23:38.393Z,25.08
2022-08-26T13:25:45.456Z,24.73
2022-08-26T13:27:48.960Z,24.58
2022-08-26T13:29:52.779Z,24.42
2022-08-26T13:31:56.514Z,24.27
2022-08-26T13:34:01.691Z,24.30
2022-08-26T13:36:05.940Z,24.34
2022-08-26T13:38:14.777Z,24.31
2022-08-26T13:40:36.922Z,24.28
2022-08-26T13:42:50.014Z,24.15
2022-08-26T13:44:57.851Z,24.15
2022-08-26T13:47:03.770Z,23.97
2022-08-26T13:49:07.805Z,23.92
2022-08-26T13:51:11.959Z,23.90
2022-08-26T13:53:16.282Z,23.90
2022-08-26T13:55:19.938Z,24.13
2022-08-26T13:57:24.767Z,24.15
2022-08-26T13:59:29.649Z,24.05
2022-08-26T14:01:34.234Z,24.13
2022-08-26T14:03:37.968Z,24.03
2022-08-26T14:05:41.855Z,23.88
2022-08-26T14:07:45.529Z,23.82
2022-08-26T14:09:49.048Z,23.99
2022-08-26T14:11:54.342Z,23.92
2022-08-26T14:13:58.651Z,23.92
2022-08-26T14:16:05.781Z,23.98
2022-08-26T14:18:13.212Z,24.07
2022-08-26T14:20:24.696Z,24.11
2022-08-26T14:22:29.061Z,24.08
2022-08-26T14:24:32.510Z,23.95
2022-08-26T14:26:39.097Z,23.84
2022-08-26T14:28:42.810Z,23.64
2022-08-26T14:30:52.032Z,23.89
2022-08-26T14:32:59.452Z,23.97
2022-08-26T14:35:03.398Z,24.02
2022-08-26T14:37:07.683Z,23.95
2022-08-26T14:39:14.638Z,23.94
2022-08-26T14:41:19.618Z,23.93
2022-08-26T14:43:23.033Z,23.80
2022-08-26T14:45:31.709Z,23.77
2022-08-26T14:47:35.395Z,23.66
2022-08-26T14:49:40.201Z,23.61
2022-08-26T14:51:43.610Z,23.67
2022-08-26T14:54:04.631Z,23.73
2022-08-26T14:56:08.043Z,23.78
2022-08-26T14:58:11.619Z,23.82
2022-08-26T15:00:15.824Z,23.85
2022-08-26T15:02:33.501Z,24.09
2022-08-26T15:04:37.922Z,24.76
2022-08-26T15:06:42.857Z,25.11
2022-08-26T15:08:46.365Z,25.21
2022-08-26T15:10:50.739Z,25.12
2022-08-26T15:12:54.160Z,25.01
2022-08-26T15:14:57.599Z,24.92
2022-08-26T15:17:01.539Z,24.94
2022-08-26T15:19:05.924Z,25.08
2022-08-26T15:21:09.367Z,25.21
2022-08-26T15:23:14.725Z,25.35
2022-08-26T15:25:18.156Z,25.31
2022-08-26T15:27:21.596Z,25.24
2022-08-26T15:29:25.075Z,25.17
2022-08-26T15:31:31.923Z,25.14
2022-08-26T15:33:36.159Z,25.02
2022-08-26T15:35:40.266Z,25.08
2022-08-26T15:37:46.358Z,24.80
2022-08-26T15:39:52.024Z,24.84
2022-08-26T15:41:56.136Z,24.73
2022-08-26T15:44:02.207Z,24.63
2022-08-26T15:46:11.837Z,24.57
2022-08-26T15:48:16.273Z,24.54
2022-08-26T15:50:20.036Z,24.43
2022-08-26T15:52:23.525Z,24.37
2022-08-26T15:54:26.953Z,24.03
2022-08-26T15:56:34.307Z,24.29
2022-08-26T15:58:38.120Z,24.32
2022-08-26T16:00:42.268Z,24.39
2022-08-26T16:02:45.836Z,24.34
2022-08-26T16:04:49.328Z,24.32
2022-08-26T16:06:53.593Z,24.30
2022-08-26T16:08:58.257Z,24.27
2022-08-26T16:11:04.505Z,24.32
2022-08-26T16:13:11.652Z,24.39
2022-08-26T16:15:18.053Z,24.20
2022-08-26T16:17:21.811Z,24.48
2022-08-26T16:19:25.395Z,24.47
2022-08-26T16:21:29.353Z,24.38
2022-08-26T16:23:32.949Z,24.38
2022-08-26T16:25:36.625Z,24.35
2022-08-26T16:27:40.085Z,24.37
2022-08-26T16:29:44.860Z,24.29
2022-08-26T16:31:51.915Z,24.25
2022-08-26T16:33:55.270Z,24.22
2022-08-26T16:35:59.049Z,24.23
2022-08-26T16:38:02.903Z,24.15
2022-08-26T16:40:08.617Z,24.09
2022-08-26T16:42:12.050Z,23.99
2022-08-26T16:44:15.499Z,24.07
2022-08-26T16:46:22.167Z,24.12
2022-08-26T16:48:26.341Z,24.20
2022-08-26T16:50:30.107Z,24.26
2022-08-26T16:52:34.084Z,24.18
2022-08-26T16:54:37.689Z,24.08
2022-08-26T16:56:41.107Z,24.03
2022-08-26T16:58:44.912Z,23.96
2022-08-26T17:00:48.549Z,23.91
2022-08-26T17:02:53.553Z,23.84
2022-08-26T17:04:56.942Z,23.82
2022-08-26T17:07:01.072Z,23.78
2022-08-26T17:09:04.831Z,23.70
2022-08-26T17:11:09.459Z,23.61
2022-08-26T17:13:12.932Z,23.74
2022-08-26T17:15:27.840Z,23.64
2022-08-26T17:17:31.317Z,23.74
2022-08-26T17:19:41.035Z,23.62
2022-08-26T17:21:50.454Z,23.56
2022-08-26T17:23:54.066Z,23.54
2022-08-26T17:25:57.509Z,23.53
2022-08-26T17:28:01.123Z,23.48
2022-08-26T17:30:06.172Z,23.45
2022-08-26T17:32:09.621Z,23.47
2022-08-26T17:34:12.981Z,23.49
2022-08-26T17:36:18.454Z,23.54
2022-08-26T17:38:22.507Z,23.49
2022-08-26T17:40:29.153Z,23.50
2022-08-26T17:42:32.594Z,23.46
2022-08-26T17:44:36.146Z,23.39
2022-08-26T17:46:39.574Z,23.37
2022-08-26T17:48:43.765Z,23.39
2022-08-26T17:50:49.703Z,23.41
2022-08-26T17:52:54.478Z,23.40
2022-08-26T17:54:58.974Z,23.36
2022-08-26T17:57:02.448Z,23.31
2022-08-26T17:59:05.873Z,23.22
2022-08-26T18:01:11.450Z,23.11
2022-08-26T18:03:15.039Z,23.23
2022-08-26T18:05:18.438Z,23.26
2022-08-26T18:07:21.880Z,23.26
2022-08-26T18:09:26.655Z,23.24
2022-08-26T18:11:31.225Z,23.24
2022-08-26T18:13:34.675Z,23.15
2022-08-26T18:15:40.161Z,23.26
2022-08-26T18:17:44.229Z,23.27
2022-08-26T18:19:47.701Z,23.26
2022-08-26T18:21:51.505Z,23.24
2022-08-26T18:23:55.985Z,23.26
2022-08-26T18:26:00.747Z,23.24
2022-08-26T18:28:04.715Z,23.21
2022-08-26T18:30:16.464Z,23.16
2022-08-26T18:32:20.274Z,23.05
2022-08-26T18:34:23.935Z,23.13
2022-08-26T18:36:37.922Z,23.10
2022-08-26T18:38:41.333Z,22.97
2022-08-26T18:40:46.687Z,23.04
2022-08-26T18:42:53.983Z,23.01
2022-08-26T18:44:57.766Z,23.04
2022-08-26T18:47:01.230Z,23.02
2022-08-26T18:49:05.277Z,23.01
2022-08-26T18:51:12.507Z,23.00
2022-08-26T18:53:17.544Z,23.00
2022-08-26T18:55:21.345Z,22.99
2022-08-26T18:57:24.981Z,22.97
2022-08-26T18:59:30.641Z,22.89
2022-08-26T19:01:35.951Z,22.91
2022-08-26T19:03:39.509Z,22.96
2022-08-26T19:05:43.060Z,22.94
2022-08-26T19:07:48.009Z,22.94
2022-08-26T19:09:53.871Z,22.91
2022-08-26T19:11:57.739Z,22.89
2022-08-26T19:14:02.340Z,22.92
2022-08-26T19:16:07.282Z,22.89
2022-08-26T19:18:12.313Z,22.79
2022-08-26T19:20:15.854Z,22.91
2022-08-26T19:22:19.831Z,22.88
2022-08-26T19:24:28.292Z,22.88
2022-08-26T19:26:32.769Z,22.91
2022-08-26T19:28:37.166Z,22.91
2022-08-26T19:30:41.600Z,22.93
2022-08-26T19:32:46.745Z,22.94
2022-08-26T19:34:50.955Z,22.85
2022-08-26T19:36:54.610Z,22.91
2022-08-26T19:38:58.587Z,22.88
2022-08-26T19:41:02.046Z,22.88
2022-08-26T19:43:06.702Z,22.86
2022-08-26T19:45:25.017Z,22.83
2022-08-26T19:47:29.071Z,22.82
2022-08-26T19:49:34.529Z,22.79
2022-08-26T19:51:38.050Z,22.74
2022-08-26T19:53:41.701Z,22.70
2022-08-26T19:55:45.195Z,22.68
2022-08-26T19:57:48.936Z,22.65
2022-08-26T19:59:52.430Z,22.67
2022-08-26T20:02:01.462Z,22.70
2022-08-26T20:04:05.556Z,22.72
2022-08-26T20:06:12.722Z,22.66
2022-08-26T20:08:22.458Z,22.61
2022-08-26T20:10:26.741Z,22.62
2022-08-26T20:12:33.271Z,22.63
2022-08-26T20:14:36.997Z,22.60
2022-08-26T20:16:40.589Z,22.59
2022-08-26T20:19:03.332Z,22.59
2022-08-26T20:21:24.497Z,22.60
2022-08-26T20:23:29.384Z,22.58
2022-08-26T20:25:34.281Z,22.38
2022-08-26T20:27:38.603Z,22.50
2022-08-26T20:29:42.947Z,22.44
2022-08-26T20:31:46.873Z,22.46
2022-08-26T20:33:51.569Z,22.39
2022-08-26T20:35:55.044Z,22.35
2022-08-26T20:37:58.883Z,22.35
2022-08-26T20:40:04.877Z,22.33
2022-08-26T20:42:20.426Z,22.32
2022-08-26T20:44:24.216Z,22.39
2022-08-26T20:46:27.741Z,22.41
2022-08-26T20:48:32.250Z,22.36
2022-08-26T20:50:38.979Z,22.33
2022-08-26T20:52:42.449Z,22.33
2022-08-26T20:54:45.889Z,22.24
2022-08-26T20:56:50.960Z,22.30
2022-08-26T20:58:58.333Z,22.25
2022-08-26T21:01:07.279Z,22.22
2022-08-26T21:03:11.256Z,22.18
2022-08-26T21:05:14.765Z,22.12
2022-08-26T21:07:20.807Z,22.11
2022-08-26T21:09:27.267Z,22.08
2022-08-26T21:11:32.140Z,22.09
2022-08-26T21:13:54.402Z,22.05
2022-08-26T21:16:00.836Z,22.07
2022-08-26T21:18:04.635Z,22.09
2022-08-26T21:20:09.216Z,22.01
2022-08-26T21:22:12.637Z,21.99
2022-08-26T21:24:17.013Z,21.94
2022-08-26T21:26:20.730Z,21.95
2022-08-26T21:28:24.169Z,21.89
2022-08-26T21:30:29.449Z,21.85
2022-08-26T21:32:33.654Z,21.85
2022-08-26T21:34:37.165Z,21.84
2022-08-26T21:36:40.666Z,21.80
2022-08-26T21:38:44.207Z,21.69
2022-08-26T21:40:58.021Z,21.77
2022-08-26T21:43:01.433Z,21.72
2022-08-26T21:45:06.196Z,21.70
2022-08-26T21:47:11.107Z,21.48
2022-08-26T21:49:17.499Z,21.66
2022-08-26T21:51:22.815Z,21.66
2022-08-26T21:53:26.340Z,21.69
2022-08-26T21:55:29.821Z,21.64
2022-08-26T21:57:34.147Z,21.70
2022-08-26T21:59:38.577Z,21.71
2022-08-26T22:01:42.762Z,21.58
2022-08-26T22:03:48.027Z,21.56
2022-08-26T22:05:51.527Z,21.57
2022-08-26T22:07:55.581Z,21.60
2022-08-26T22:09:59.066Z,21.61
2022-08-26T22:12:02.692Z,21.45
2022-08-26T22:16:10.511Z,21.59
2022-08-26T22:18:14.099Z,21.58
2022-08-26T22:20:19.001Z,21.70
2022-08-26T22:22:23.040Z,21.68
2022-08-26T22:24:27.895Z,21.64
2022-08-26T22:26:33.286Z,21.62
2022-08-26T22:28:37.258Z,21.55
2022-08-26T22:30:43.192Z,21.44
2022-08-26T22:32:46.628Z,21.33
2022-08-26T22:34:50.121Z,21.17
2022-08-26T22:36:54.904Z,21.25
2022-08-26T22:38:59.862Z,21.23
2022-08-26T22:41:06.545Z,21.20
2022-08-26T22:43:12.093Z,21.09
2022-08-26T22:45:15.517Z,21.09
2022-08-26T22:47:19.235Z,21.05
2022-08-26T22:49:23.452Z,21.19
2022-08-26T22:51:27.898Z,21.15
2022-08-26T22:53:32.850Z,21.04
2022-08-26T22:55:39.712Z,20.84
2022-08-26T22:57:43.255Z,20.67
2022-08-26T22:59:47.331Z,20.87
2022-08-26T23:01:51.619Z,20.78
2022-08-26T23:03:55.106Z,20.76
2022-08-26T23:05:58.681Z,20.54
2022-08-26T23:08:03.217Z,20.69
2022-08-26T23:10:09.839Z,20.69
2022-08-26T23:12:13.327Z,20.60
2022-08-26T23:14:17.944Z,20.52
2022-08-26T23:16:21.471Z,20.57
2022-08-26T23:18:25.022Z,20.57
2022-08-26T23:20:29.058Z,20.46
2022-08-26T23:22:32.498Z,20.53
2022-08-26T23:24:37.949Z,20.47
2022-08-26T23:26:43.381Z,20.33
2022-08-26T23:28:47.028Z,20.31
2022-08-26T23:30:50.915Z,20.37
2022-08-26T23:32:54.856Z,20.37
2022-08-26T23:34:58.699Z,20.17
2022-08-26T23:37:02.190Z,20.29
2022-08-26T23:39:10.160Z,20.27
2022-08-26T23:41:13.557Z,20.29
2022-08-26T23:43:21.900Z,20.32
2022-08-26T23:45:25.928Z,20.33
2022-08-26T23:47:29.698Z,20.30
2022-08-26T23:49:33.949Z,20.29
2022-08-26T23:51:56.186Z,20.16
2022-08-26T23:53:59.612Z,20.10
2022-08-26T23:56:03.308Z,20.09
2022-08-26T23:58:07.328Z,19.99
